Time;durP1;ratioP1;P1;durP2;ratioP2;P2;SDS_P1;SDS_P2;PMS_P1;PMS_P2;Temp;Humidity;BMP_temperature;BMP_pressure;BME280_temperature;BME280_humidity;BME280_pressure;Samples;Min_cycle;Max_cycle;Signal;HPM_P1;HPM_P2
2022/07/18 00:01:47;;;;;;;8.03;3.37;;;;;;;18.45;54.61;102333.44;5270950;28;20040;-79
2022/07/18 00:04:18;;;;;;;11.67;2.93;;;;;;;18.30;55.36;102335.38;5270032;28;20114;-79
2022/07/18 00:06:50;;;;;;;9.00;3.20;;;;;;;18.23;55.31;102334.09;5269268;28;20028;-78
2022/07/18 00:09:23;;;;;;;6.53;3.60;;;;;;;18.20;55.23;102323.72;5270881;28;20028;-79
2022/07/18 00:11:54;;;;;;;7.17;3.47;;;;;;;18.14;55.59;102311.72;5270878;28;20101;-79
2022/07/18 00:14:26;;;;;;;6.73;3.47;;;;;;;18.10;55.62;102329.59;5269744;28;20111;-79
2022/07/18 00:16:59;;;;;;;8.83;3.90;;;;;;;18.07;55.92;102328.97;5270302;28;20040;-79
2022/07/18 00:19:30;;;;;;;7.83;3.07;;;;;;;17.99;55.88;102322.41;5271883;28;20042;-79
2022/07/18 00:22:03;;;;;;;7.53;3.80;;;;;;;17.94;55.92;102323.66;5270620;28;20032;-79
2022/07/18 00:24:34;;;;;;;5.77;3.40;;;;;;;18.46;54.61;102318.38;5270226;28;20632;-79
2022/07/18 00:27:07;;;;;;;9.70;3.60;;;;;;;18.01;55.96;102317.00;5268517;28;20020;-79
2022/07/18 00:29:39;;;;;;;7.87;3.83;;;;;;;17.85;56.41;102314.53;5271058;28;20426;-78
2022/07/18 00:32:10;;;;;;;6.37;3.87;;;;;;;17.93;55.80;102311.34;5270308;28;20025;-79
2022/07/18 00:34:41;;;;;;;6.63;3.00;;;;;;;18.10;55.51;102296.97;5270615;28;20034;-79
2022/07/18 00:37:13;;;;;;;7.70;3.27;;;;;;;17.84;56.13;102300.44;5270187;28;20029;-79
2022/07/18 00:39:44;;;;;;;6.47;3.17;;;;;;;17.81;56.09;102300.63;5271120;28;20055;-79
2022/07/18 00:42:16;;;;;;;7.63;3.43;;;;;;;17.69;56.62;102297.03;5268076;28;20316;-79
2022/07/18 00:44:52;;;;;;;5.73;3.53;;;;;;;17.95;55.81;102285.59;5270855;28;20032;-79
2022/07/18 00:47:24;;;;;;;10.10;4.07;;;;;;;17.61;57.07;102286.94;5267716;28;20115;-78
2022/07/18 00:49:55;;;;;;;15.40;3.43;;;;;;;18.06;55.52;102279.56;5269423;28;20119;-79
2022/07/18 00:52:26;;;;;;;6.27;3.47;;;;;;;17.65;56.62;102284.94;5270168;28;20361;-79
2022/07/18 00:54:58;;;;;;;6.70;3.53;;;;;;;17.69;56.83;102290.88;5268769;28;20032;-78
2022/07/18 00:57:29;;;;;;;7.00;3.67;;;;;;;17.75;56.40;102298.41;5268809;28;20055;-78
2022/07/18 01:02:51;;;;;;;5.47;3.90;;;;;;;17.47;57.53;102293.16;5270534;28;20427;-78
2022/07/18 01:05:22;;;;;;;8.37;4.47;;;;;;;17.38;57.31;102285.84;5270310;28;20037;-78
2022/07/18 01:07:53;;;;;;;7.23;4.00;;;;;;;17.25;57.27;102280.47;5269215;28;20036;-78
2022/07/18 01:10:25;;;;;;;10.27;4.23;;;;;;;17.26;57.41;102287.50;5291777;22;20150;-79
2022/07/18 01:12:56;;;;;;;9.87;3.60;;;;;;;17.48;57.25;102286.91;5290233;28;20485;-74
2022/07/18 01:15:27;;;;;;;11.60;3.70;;;;;;;17.15;57.55;102283.75;5291313;28;20031;-78
2022/07/18 01:17:59;;;;;;;9.60;4.60;;;;;;;17.29;57.42;102276.69;5290616;28;20035;-79
2022/07/18 01:20:31;;;;;;;5.90;3.87;;;;;;;17.25;57.67;102280.47;5290623;28;20055;-79
2022/07/18 01:23:02;;;;;;;16.20;4.33;;;;;;;17.03;57.99;102265.97;5290029;28;20101;-79
2022/07/18 01:25:34;;;;;;;6.90;3.47;;;;;;;17.26;57.43;102266.31;5291143;28;20027;-78
2022/07/18 01:28:05;;;;;;;7.63;3.60;;;;;;;17.29;56.81;102272.25;5289017;28;20074;-78
2022/07/18 01:30:37;;;;;;;6.73;3.63;;;;;;;17.07;57.59;102267.47;5291296;28;20032;-77
2022/07/18 01:33:08;;;;;;;8.03;4.10;;;;;;;17.23;57.36;102266.50;5290828;28;20040;-77
2022/07/18 01:35:39;;;;;;;7.67;3.80;;;;;;;17.02;58.09;102264.28;5291829;28;20019;-77
2022/07/18 01:38:12;;;;;;;6.00;3.93;;;;;;;16.95;58.22;102276.22;5290676;28;20051;-77
2022/07/18 01:40:43;;;;;;;9.17;3.43;;;;;;;16.85;58.55;102268.88;5290083;28;20032;-77
2022/07/18 01:43:14;;;;;;;6.67;3.97;;;;;;;16.87;58.78;102274.06;5287999;28;20024;-77
2022/07/18 01:45:46;;;;;;;8.80;4.10;;;;;;;17.04;58.08;102270.31;5290156;28;20031;-77
2022/07/18 01:48:18;;;;;;;6.60;4.07;;;;;;;16.79;59.06;102277.22;5289083;28;20036;-77
2022/07/18 01:50:51;;;;;;;7.77;4.10;;;;;;;16.69;59.28;102263.69;5291065;28;20064;-77
2022/07/18 01:53:24;;;;;;;8.90;3.90;;;;;;;16.93;58.47;102273.69;5290840;28;20054;-77
2022/07/18 01:55:55;;;;;;;7.10;4.10;;;;;;;16.61;58.86;102256.25;5290849;28;20107;-77
2022/07/18 01:58:26;;;;;;;6.67;4.07;;;;;;;16.81;58.28;102267.34;5288955;28;20111;-74
2022/07/18 02:00:57;;;;;;;10.17;3.70;;;;;;;16.79;58.50;102264.81;5289994;28;20573;-78
2022/07/18 02:03:29;;;;;;;7.00;4.40;;;;;;;16.76;58.88;102265.00;5290398;28;20028;-78
2022/07/18 02:06:00;;;;;;;8.83;4.10;;;;;;;16.99;58.99;102270.63;5291593;28;20095;-78
2022/07/18 02:08:31;;;;;;;12.33;4.10;;;;;;;16.79;58.65;102267.44;5289460;28;20036;-78
2022/07/18 02:11:03;;;;;;;6.97;3.83;;;;;;;16.71;59.04;102263.59;5291404;28;20032;-78
2022/07/18 02:13:34;;;;;;;13.00;4.23;;;;;;;16.58;59.57;102261.75;5275832;28;20024;-77
2022/07/18 02:16:06;;;;;;;8.33;3.70;;;;;;;16.58;59.72;102256.47;5275893;28;20021;-78
2022/07/18 02:18:37;;;;;;;6.67;3.90;;;;;;;16.63;59.30;102251.72;5271615;28;20028;-78
2022/07/18 02:21:09;;;;;;;7.60;4.00;;;;;;;16.25;61.20;102250.53;5294974;28;20557;-77
2022/07/18 02:23:42;;;;;;;8.23;4.63;;;;;;;16.36;60.77;102252.50;5294337;28;20035;-77
2022/07/18 02:26:13;;;;;;;9.90;5.47;;;;;;;16.34;60.88;102246.47;5295473;28;20028;-76
2022/07/18 02:28:45;;;;;;;12.10;6.43;;;;;;;16.33;60.77;102235.06;5297185;28;20039;-78
2022/07/18 02:31:16;;;;;;;13.13;6.10;;;;;;;16.24;61.39;102242.69;5293741;28;20088;-77
2022/07/18 02:33:47;;;;;;;9.60;6.53;;;;;;;16.14;61.56;102240.63;5295201;28;20031;-77
2022/07/18 02:36:18;;;;;;;9.77;5.40;;;;;;;16.52;60.29;102246.25;5292727;28;20031;-78
2022/07/18 02:38:50;;;;;;;9.80;5.47;;;;;;;16.52;60.41;102238.31;5294412;28;20154;-78
2022/07/18 02:41:21;;;;;;;12.40;4.80;;;;;;;16.50;60.43;102240.22;5294315;28;20042;-77
2022/07/18 02:43:52;;;;;;;9.50;5.13;;;;;;;16.16;62.32;102235.25;5293145;28;20088;-78
2022/07/18 02:46:24;;;;;;;10.23;5.70;;;;;;;16.36;61.79;102233.13;5293633;28;20020;-77
2022/07/18 02:48:55;;;;;;;10.33;5.00;;;;;;;16.24;62.48;102230.34;5293433;28;20028;-78
2022/07/18 02:51:27;;;;;;;8.63;5.67;;;;;;;16.04;62.40;102224.47;5294243;28;20039;-77
2022/07/18 02:53:58;;;;;;;10.73;5.23;;;;;;;16.01;62.96;102231.72;5290444;28;20042;-77
2022/07/18 02:56:29;;;;;;;9.93;4.80;;;;;;;16.01;63.37;102224.66;5293485;28;20535;-77
2022/07/18 02:59:01;;;;;;;9.47;5.17;;;;;;;16.11;63.20;102237.31;5292887;28;20028;-77
2022/07/18 03:01:32;;;;;;;6.13;5.40;;;;;;;16.06;63.22;102242.88;5294331;28;20036;-77
2022/07/18 03:04:03;;;;;;;10.33;5.53;;;;;;;15.99;63.55;102233.63;5292487;28;20055;-77
2022/07/18 03:06:35;;;;;;;8.50;4.93;;;;;;;15.80;64.34;102232.06;5293980;28;20113;-77
2022/07/18 03:09:06;;;;;;;8.30;4.53;;;;;;;15.83;64.48;102227.44;5292515;28;20516;-77
2022/07/18 03:11:38;;;;;;;9.53;5.03;;;;;;;15.89;64.19;102228.88;5292830;28;20372;-77
2022/07/18 03:14:09;;;;;;;9.57;5.30;;;;;;;15.87;64.69;102228.13;5277997;28;20483;-78
2022/07/18 03:16:41;;;;;;;7.27;4.93;;;;;;;15.87;64.66;102220.19;5292841;28;20057;-78
2022/07/18 03:19:12;;;;;;;8.40;4.53;;;;;;;15.77;64.69;102196.13;5292918;28;20040;-78
2022/07/18 03:21:44;;;;;;;9.80;4.53;;;;;;;15.56;65.90;102201.78;5276988;28;20040;-77
2022/07/18 03:24:15;;;;;;;10.10;5.43;;;;;;;15.69;65.04;102191.31;5274295;28;20909;-77
2022/07/18 03:26:47;;;;;;;10.97;4.40;;;;;;;15.71;65.30;102207.91;5282855;28;20651;-78
2022/07/18 03:29:18;;;;;;;9.47;4.03;;;;;;;15.79;64.95;102203.97;5289212;28;20032;-77
2022/07/18 03:31:50;;;;;;;12.93;4.73;;;;;;;15.71;65.73;102199.13;5293710;28;20196;-78
2022/07/18 03:34:21;;;;;;;8.50;5.10;;;;;;;15.67;65.37;102192.34;5293615;28;20145;-77
2022/07/18 03:36:52;;;;;;;11.17;4.73;;;;;;;15.79;65.13;102190.75;5291946;28;20034;-77
2022/07/18 03:39:23;;;;;;;9.37;4.57;;;;;;;15.62;65.58;102197.91;5293046;28;20028;-77
2022/07/18 03:41:55;;;;;;;9.53;5.07;;;;;;;15.75;64.93;102189.22;5292646;28;20036;-76
2022/07/18 03:44:26;;;;;;;8.33;4.20;;;;;;;15.66;65.37;102190.63;5293424;28;20165;-77
2022/07/18 03:46:57;;;;;;;8.43;4.83;;;;;;;15.58;65.19;102185.84;5275049;28;20036;-77
2022/07/18 03:49:29;;;;;;;6.27;3.67;;;;;;;15.72;64.85;102200.84;5292980;28;20074;-77
2022/07/18 03:52:00;;;;;;;12.23;4.27;;;;;;;15.58;65.09;102193.75;5267412;28;20399;-78
2022/07/18 03:54:31;;;;;;;7.20;4.00;;;;;;;15.59;65.02;102203.34;5283381;28;20040;-77
2022/07/18 03:57:03;;;;;;;10.40;4.03;;;;;;;15.60;65.41;102202.44;5290928;28;20028;-78
2022/07/18 03:59:35;;;;;;;9.60;4.20;;;;;;;15.59;65.36;102203.34;5292228;28;20043;-78
2022/07/18 04:02:06;;;;;;;8.57;4.23;;;;;;;15.56;65.56;102187.72;5292479;28;20073;-77
2022/07/18 04:04:38;;;;;;;8.67;4.53;;;;;;;15.56;65.85;102195.63;5290615;28;20032;-77
2022/07/18 04:07:10;;;;;;;8.80;4.27;;;;;;;15.35;65.75;102182.75;5289364;28;20134;-77
2022/07/18 04:09:41;;;;;;;9.37;4.63;;;;;;;15.52;65.21;102194.97;5286514;28;20044;-77
2022/07/18 04:12:12;;;;;;;8.83;5.03;;;;;;;15.31;65.77;102182.09;5290891;28;20031;-78
2022/07/18 04:14:44;;;;;;;10.33;4.40;;;;;;;15.57;65.38;102199.94;5274577;28;20135;-77
2022/07/18 04:17:15;;;;;;;11.13;4.47;;;;;;;15.33;65.66;102174.09;5292358;28;20909;-77
2022/07/18 04:19:46;;;;;;;5.67;3.60;;;;;;;15.41;65.69;102192.13;5292261;28;20032;-78
2022/07/18 04:22:18;;;;;;;8.90;4.93;;;;;;;15.33;65.87;102166.16;5290574;28;20115;-78
2022/07/18 04:24:49;;;;;;;7.20;4.07;;;;;;;15.60;65.07;102183.94;5291939;28;20032;-78
2022/07/18 04:27:20;;;;;;;11.40;5.10;;;;;;;15.54;65.29;102171.97;5272953;28;20056;-78
2022/07/18 04:29:52;;;;;;;8.23;4.87;;;;;;;15.62;65.29;102176.78;5292207;28;20044;-79
2022/07/18 04:32:23;;;;;;;14.37;5.23;;;;;;;15.52;65.89;102167.69;5290415;28;20059;-79
2022/07/18 04:34:54;;;;;;;11.27;5.10;;;;;;;15.57;65.79;102165.63;5292673;28;20089;-78
2022/07/18 04:37:25;;;;;;;10.07;4.40;;;;;;;15.61;66.20;102169.78;5290224;28;20024;-78
2022/07/18 04:39:57;;;;;;;10.00;5.10;;;;;;;15.60;65.96;102165.47;5291336;28;20059;-78
2022/07/18 04:42:30;;;;;;;11.73;4.50;;;;;;;15.52;66.37;102165.06;5289491;28;20036;-78
2022/07/18 04:45:02;;;;;;;10.43;4.80;;;;;;;15.69;66.00;102162.25;5288207;28;20016;-78
2022/07/18 04:47:34;;;;;;;13.77;4.73;;;;;;;15.79;66.12;102172.25;5290904;28;20081;-78
2022/07/18 04:50:06;;;;;;;12.03;4.03;;;;;;;15.62;67.29;102162.72;5291598;28;20036;-78
2022/07/18 04:52:42;;;;;;;6.27;4.00;;;;;;;15.78;67.01;102168.75;5290543;28;20042;-78
2022/07/18 04:55:15;;;;;;;9.67;5.13;;;;;;;15.77;67.36;102172.38;5292332;28;20565;-78
2022/07/18 04:57:47;;;;;;;14.23;4.82;;;;;;;15.69;68.51;102175.47;5289611;28;20032;-78
2022/07/18 05:00:22;;;;;;;11.93;5.40;;;;;;;15.83;68.14;102171.97;5291513;28;20034;-78
2022/07/18 05:02:56;;;;;;;8.10;4.47;;;;;;;15.89;67.95;102176.03;5291248;28;20024;-78
2022/07/18 05:05:28;;;;;;;10.85;4.70;;;;;;;15.96;67.24;102172.09;5286237;28;20390;-78
2022/07/18 05:07:59;;;;;;;10.87;4.53;;;;;;;16.03;67.82;102171.72;5287646;28;20452;-77
2022/07/18 05:10:32;;;;;;;11.07;4.93;;;;;;;16.11;65.97;102177.38;5291256;28;20101;-77
2022/07/18 05:13:03;;;;;;;11.83;5.00;;;;;;;16.16;66.51;102171.81;5289433;28;20024;-75
2022/07/18 05:15:34;;;;;;;9.87;5.27;;;;;;;16.11;68.17;102171.25;5275967;28;20405;-77
2022/07/18 05:18:06;;;;;;;10.00;5.00;;;;;;;16.21;67.76;102172.38;5288327;28;20031;-78
2022/07/18 05:20:37;;;;;;;10.03;5.40;;;;;;;16.21;67.83;102172.38;5271199;28;20031;-78
2022/07/18 05:23:09;;;;;;;14.33;4.23;;;;;;;16.15;67.48;102162.19;5281025;28;20060;-77
2022/07/18 05:25:40;;;;;;;8.13;4.37;;;;;;;16.40;65.90;102180.00;5291583;28;20030;-76
2022/07/18 05:28:12;;;;;;;14.13;6.10;;;;;;;16.55;65.16;102179.94;5290047;28;20020;-76
2022/07/18 05:30:43;;;;;;;11.10;5.23;;;;;;;16.64;63.61;102181.16;5283138;28;20028;-76
2022/07/18 05:33:14;;;;;;;10.33;5.53;;;;;;;16.58;64.06;102171.84;5284913;28;20078;-77
2022/07/18 05:35:46;;;;;;;13.10;5.23;;;;;;;16.66;63.06;102174.81;5292396;28;20061;-77
2022/07/18 05:38:17;;;;;;;9.97;4.60;;;;;;;16.77;62.28;102179.41;5291799;28;20028;-76
2022/07/18 05:40:48;;;;;;;8.73;5.17;;;;;;;16.75;62.73;102175.16;5291155;28;20077;-77
2022/07/18 05:43:20;;;;;;;14.50;5.77;;;;;;;16.85;61.02;102172.75;5290637;28;20047;-77
2022/07/18 05:45:51;;;;;;;10.47;5.33;;;;;;;16.92;60.89;102174.91;5290876;28;20043;-78
2022/07/18 05:48:22;;;;;;;10.57;4.43;;;;;;;16.92;61.16;102174.91;5257976;28;20470;-77
2022/07/18 05:50:53;;;;;;;9.53;4.70;;;;;;;16.91;60.56;102157.31;5291300;28;20040;-76
2022/07/18 05:53:25;;;;;;;11.07;4.27;;;;;;;17.13;60.31;102174.47;5292089;28;20024;-77
2022/07/18 05:55:56;;;;;;;12.53;5.77;;;;;;;17.10;60.98;102177.31;5291730;28;20024;-73
2022/07/18 05:58:27;;;;;;;10.77;4.93;;;;;;;17.19;60.51;102175.88;5277795;28;20024;-76
2022/07/18 06:00:59;;;;;;;12.93;5.03;;;;;;;17.14;59.92;102154.97;5285337;28;20067;-77
2022/07/18 06:03:30;;;;;;;11.73;4.57;;;;;;;17.37;58.21;102167.59;5270642;28;20032;-77
2022/07/18 06:06:01;;;;;;;11.20;4.03;;;;;;;17.45;58.35;102160.00;5270480;28;20021;-78
2022/07/18 06:08:32;;;;;;;12.70;4.13;;;;;;;17.50;58.54;102165.84;5275555;28;20052;-72
2022/07/18 06:11:06;;;;;;;15.67;4.73;;;;;;;17.67;57.10;102171.75;5285921;28;20526;-72
2022/07/18 06:13:40;;;;;;;8.57;4.40;;;;;;;17.78;56.28;102177.16;5280898;28;20046;-73
2022/07/18 06:16:11;;;;;;;8.73;4.10;;;;;;;17.88;55.43;102174.72;5285547;28;20020;-74
2022/07/18 06:18:42;;;;;;;15.50;6.37;;;;;;;17.91;55.72;102171.00;5279934;28;20149;-74
2022/07/18 06:21:14;;;;;;;18.07;5.70;;;;;;;17.97;55.86;102169.72;5263941;28;20483;-75
2022/07/18 06:23:45;;;;;;;14.23;5.27;;;;;;;18.11;55.55;102155.50;5265229;28;20075;-74
2022/07/18 06:26:16;;;;;;;13.03;4.60;;;;;;;18.12;55.65;102147.44;5287914;28;20032;-75
2022/07/18 06:28:48;;;;;;;10.57;5.10;;;;;;;18.26;55.45;102153.56;5287352;28;20035;-86
2022/07/18 06:31:19;;;;;;;13.50;4.57;;;;;;;18.29;55.25;102153.38;5289421;28;20040;-78
2022/07/18 06:33:50;;;;;;;14.67;4.20;;;;;;;18.30;55.96;102147.09;5283444;28;20043;-80
2022/07/18 06:36:23;;;;;;;8.70;4.17;;;;;;;18.37;54.28;102148.34;5279060;28;20031;-80
2022/07/18 06:38:55;;;;;;;11.77;4.57;;;;;;;18.64;53.94;102150.88;5286651;28;20035;-79
2022/07/18 06:41:26;;;;;;;21.97;5.93;;;;;;;18.69;53.73;102149.59;5280820;28;20024;-78
2022/07/18 06:43:57;;;;;;;13.00;4.60;;;;;;;18.85;53.17;102143.16;5258057;28;20024;-80
2022/07/18 06:46:29;;;;;;;11.90;5.03;;;;;;;18.84;53.35;102142.28;5273940;28;20101;-82
2022/07/18 06:49:00;;;;;;;11.00;4.13;;;;;;;19.09;52.14;102140.41;5276769;28;20047;-79
2022/07/18 06:51:31;;;;;;;10.30;4.40;;;;;;;19.13;52.32;102134.94;5277139;28;20666;-82
2022/07/18 06:54:02;;;;;;;14.80;4.30;;;;;;;19.33;52.18;102139.56;5275255;28;20036;-75
2022/07/18 06:56:34;;;;;;;13.97;5.07;;;;;;;19.45;52.06;102132.44;5275681;28;20470;-76
2022/07/18 06:59:05;;;;;;;10.27;4.27;;;;;;;19.58;50.77;102126.19;5288309;28;20016;-76
2022/07/18 07:01:36;;;;;;;10.67;4.23;;;;;;;19.69;50.62;102141.25;5284224;28;20704;-76
2022/07/18 07:04:08;;;;;;;17.37;4.17;;;;;;;19.73;50.18;102133.88;5288471;28;20028;-75
2022/07/18 07:06:39;;;;;;;13.07;4.00;;;;;;;19.88;50.31;102135.31;5275832;28;20542;-76
2022/07/18 07:09:10;;;;;;;19.97;3.53;;;;;;;19.95;49.37;102141.00;5277271;28;20059;-81
2022/07/18 07:11:42;;;;;;;12.43;3.97;;;;;;;20.03;49.52;102140.41;5277064;28;20028;-82
2022/07/18 07:14:13;;;;;;;9.37;3.60;;;;;;;20.27;50.31;102142.94;5262500;28;20035;-77
2022/07/18 07:16:44;;;;;;;9.03;3.57;;;;;;;20.30;49.16;102134.69;5280842;28;20034;-82
2022/07/18 07:19:16;;;;;;;11.87;3.77;;;;;;;20.40;49.00;102145.41;5266957;28;20059;-80
2022/07/18 07:21:47;;;;;;;15.60;3.40;;;;;;;20.44;49.14;102146.00;5280147;28;20122;-76
2022/07/18 07:24:18;;;;;;;12.60;3.50;;;;;;;21.06;46.53;102156.09;5271786;28;20078;-75
2022/07/18 07:26:50;;;;;;;20.60;4.47;;;;;;;20.91;46.66;102144.84;5279632;28;20115;-76
2022/07/18 07:29:21;;;;;;;6.77;2.97;;;;;;;21.06;44.98;102149.91;5280647;28;20021;-77
2022/07/18 07:31:52;;;;;;;8.23;2.80;;;;;;;21.15;44.74;102141.97;5270989;28;20083;-76
2022/07/18 07:34:24;;;;;;;18.67;2.90;;;;;;;21.27;44.82;102137.44;5283725;28;20102;-77
2022/07/18 07:36:55;;;;;;;6.13;2.40;;;;;;;21.48;44.28;102143.69;5272117;28;20093;-77
2022/07/18 07:39:26;;;;;;;6.80;2.43;;;;;;;21.59;43.95;102148.09;5269086;28;20029;-76
2022/07/18 07:41:58;;;;;;;10.23;2.30;;;;;;;21.62;42.70;102142.50;5271510;28;20050;-77
2022/07/18 07:44:29;;;;;;;6.43;2.23;;;;;;;22.11;43.05;102141.84;5283873;28;20055;-77
2022/07/18 07:47:00;;;;;;;7.17;2.30;;;;;;;22.27;43.42;102127.97;5278379;28;20032;-79
2022/07/18 07:49:33;;;;;;;8.93;2.37;;;;;;;22.39;41.50;102134.03;5273956;28;20039;-77
2022/07/18 07:52:05;;;;;;;13.15;2.40;;;;;;;22.13;40.75;102126.56;5261903;28;20048;-78
2022/07/18 07:54:36;;;;;;;5.97;2.30;;;;;;;22.15;40.63;102127.25;5283051;28;20047;-77
2022/07/18 07:57:07;;;;;;;5.72;2.08;;;;;;;22.44;40.08;102120.25;5268253;28;20017;-77
2022/07/18 07:59:39;;;;;;;11.30;2.85;;;;;;;22.59;40.19;102118.84;5258896;28;20024;-77
2022/07/18 08:02:10;;;;;;;5.65;1.60;;;;;;;22.78;39.84;102114.50;5273026;28;20021;-77
2022/07/18 08:04:42;;;;;;;6.30;1.73;;;;;;;22.70;39.50;102109.91;5268819;28;20031;-76
2022/07/18 08:07:13;;;;;;;8.45;1.95;;;;;;;22.86;40.02;102103.13;5281741;28;20043;-76
2022/07/18 08:09:44;;;;;;;5.55;1.98;;;;;;;22.98;39.25;102109.16;5277722;28;20406;-76
2022/07/18 08:12:16;;;;;;;7.63;2.20;;;;;;;23.08;40.37;102103.78;5286768;28;20110;-76
2022/07/18 08:14:47;;;;;;;8.70;1.80;;;;;;;23.09;38.92;102116.16;5272851;28;20471;-77
2022/07/18 08:17:18;;;;;;;5.22;1.80;;;;;;;23.14;37.93;102103.22;5262196;28;20654;-76
2022/07/18 08:19:49;;;;;;;7.20;2.10;;;;;;;22.97;38.19;102099.44;5272077;28;20040;-77
2022/07/18 08:22:21;;;;;;;5.20;1.90;;;;;;;23.20;38.09;102089.25;5271289;28;20036;-77
2022/07/18 08:24:52;;;;;;;6.55;1.85;;;;;;;23.38;38.02;102083.16;5274965;28;20220;-77
2022/07/18 08:27:23;;;;;;;5.15;1.80;;;;;;;23.49;37.91;102084.81;5274715;28;20032;-77
2022/07/18 08:29:55;;;;;;;3.78;1.20;;;;;;;23.75;37.71;102086.81;5269506;28;20254;-77
2022/07/18 08:32:26;;;;;;;5.95;1.85;;;;;;;24.02;37.50;102098.44;5268801;28;20029;-75
2022/07/18 08:34:57;;;;;;;6.40;1.85;;;;;;;23.88;38.24;102099.81;5269318;28;20021;-77
2022/07/18 08:37:28;;;;;;;7.85;2.13;;;;;;;23.99;38.36;102103.25;5266582;28;20567;-77
2022/07/18 08:40:00;;;;;;;4.78;1.80;;;;;;;24.11;37.63;102106.56;5289620;28;20039;-77
2022/07/18 08:42:33;;;;;;;6.38;1.90;;;;;;;24.17;37.86;102103.28;5270254;28;20032;-77
2022/07/18 08:45:05;;;;;;;6.25;1.70;;;;;;;24.44;38.12;102108.72;5281013;28;20048;-77
2022/07/18 08:47:36;;;;;;;6.38;1.80;;;;;;;24.45;38.48;102107.75;5272373;28;20066;-77
2022/07/18 08:50:08;;;;;;;6.25;1.95;;;;;;;24.25;38.11;102108.75;5255058;28;20016;-77
2022/07/18 08:52:40;;;;;;;6.85;1.90;;;;;;;24.36;38.19;102113.03;5268635;28;20099;-77
2022/07/18 08:55:11;;;;;;;7.43;2.17;;;;;;;24.63;38.43;102113.06;5278569;28;20028;-78
2022/07/18 08:57:42;;;;;;;6.97;1.90;;;;;;;24.55;38.62;102105.81;5265793;28;20039;-77
2022/07/18 09:00:14;;;;;;;6.55;1.92;;;;;;;24.78;39.53;102095.44;5268560;28;20033;-77
2022/07/18 09:02:45;;;;;;;7.68;2.00;;;;;;;24.91;38.76;102093.38;5268949;28;20845;-78
2022/07/18 09:05:19;;;;;;;6.35;1.98;;;;;;;25.15;39.49;102103.44;5277790;28;20101;-77
2022/07/18 09:07:50;;;;;;;7.43;2.20;;;;;;;25.20;38.26;102102.94;5268120;28;20109;-77
2022/07/18 09:10:22;;;;;;;7.40;2.00;;;;;;;25.42;38.31;102092.66;5267606;28;20102;-77
2022/07/18 09:12:57;;;;;;;6.20;2.05;;;;;;;25.12;37.20;102096.53;5267236;28;20028;-77
2022/07/18 09:15:28;;;;;;;5.13;1.90;;;;;;;25.25;37.03;102100.63;5287385;28;20020;-77
2022/07/18 09:17:59;;;;;;;7.20;1.98;;;;;;;25.52;37.57;102098.72;5272235;28;20054;-77
2022/07/18 09:20:31;;;;;;;9.23;2.17;;;;;;;25.85;36.70;102104.22;5266406;28;20030;-77
2022/07/18 09:23:12;;;;;;;9.18;1.75;;;;;;;25.53;36.74;102107.63;5267504;28;20025;-77
2022/07/18 09:25:44;;;;;;;5.18;1.90;;;;;;;25.78;35.93;102102.38;5274616;28;20039;-77
2022/07/18 09:28:15;;;;;;;3.83;1.77;;;;;;;25.71;35.66;102110.25;5269978;28;20032;-78
2022/07/18 09:30:46;;;;;;;3.95;1.70;;;;;;;26.07;36.34;102110.00;5268203;28;20119;-77
2022/07/18 09:33:20;;;;;;;5.13;1.55;;;;;;;26.33;35.92;102106.34;5269924;28;20043;-77
2022/07/18 09:35:53;;;;;;;;;;;;;;;25.96;37.45;102102.25;5279599;28;20020;-77
2022/07/18 09:38:29;;;;;;;5.80;1.75;;;;;;;26.30;35.88;102109.34;5274101;28;19924;-77
2022/07/18 09:41:00;;;;;;;6.65;1.70;;;;;;;26.59;34.64;102112.56;5279101;28;20028;-77
2022/07/18 09:43:37;;;;;;;7.65;1.98;;;;;;;26.55;35.12;102093.25;5268522;28;20039;-75
2022/07/18 09:46:08;;;;;;;9.20;1.85;;;;;;;26.53;34.84;102108.69;5269148;28;20032;-78
2022/07/18 09:48:39;;;;;;;9.23;1.73;;;;;;;26.52;34.79;102095.44;5268568;28;20035;-77
2022/07/18 09:51:11;;;;;;;5.00;1.80;;;;;;;26.84;34.25;102106.34;5268674;28;20028;-77
2022/07/18 09:53:44;;;;;;;8.65;2.55;;;;;;;26.62;35.31;102096.09;5271572;28;20119;-81
2022/07/18 09:56:25;;;;;;;8.77;2.80;;;;;;;26.25;37.41;102095.56;5267652;28;20028;-79
2022/07/18 09:58:57;;;;;;;4.13;1.80;;;;;;;26.66;36.62;102096.59;5258195;28;20107;-78
2022/07/18 10:01:28;;;;;;;6.97;2.00;;;;;;;26.48;36.04;102094.94;5279977;28;20115;-79
2022/07/18 10:04:00;;;;;;;9.98;2.35;;;;;;;26.73;35.15;102108.34;5279109;28;20645;-80
2022/07/18 10:06:32;;;;;;;10.38;2.60;;;;;;;26.84;35.26;102093.75;5280446;28;21296;-79
2022/07/18 10:09:04;;;;;;;9.02;2.20;;;;;;;26.89;35.88;102095.91;5278043;28;20541;-79
2022/07/18 10:11:35;;;;;;;8.05;2.67;;;;;;;27.27;35.69;102103.38;5277128;28;20055;-78
2022/07/18 10:14:06;;;;;;;8.05;1.95;;;;;;;27.24;35.18;102095.69;5280036;28;20020;-79
2022/07/18 10:16:38;;;;;;;8.02;1.63;;;;;;;27.03;35.76;102092.56;5280276;28;20063;-78
2022/07/18 10:19:11;;;;;;;9.05;1.95;;;;;;;27.51;34.49;102088.16;5278694;28;20030;-78
2022/07/18 10:21:47;;;;;;;7.22;1.60;;;;;;;27.23;34.37;102070.63;5277749;28;20015;-79
2022/07/18 10:24:21;;;;;;;9.70;1.90;;;;;;;27.25;34.86;102092.81;5283411;28;20102;-78
2022/07/18 10:27:19;;;;;;;4.57;1.73;;;;;;;27.38;36.22;102091.44;5278651;28;20023;-78
2022/07/18 10:30:11;;;;;;;2.97;1.88;;;;;;;27.65;34.60;102089.25;5280216;28;20020;-78
2022/07/18 10:32:42;;;;;;;5.68;1.90;;;;;;;27.89;34.74;102092.88;5280229;28;20035;-78
2022/07/18 10:35:16;;;;;;;2.20;1.17;;;;;;;27.89;32.50;102091.00;5272770;28;20029;-80
2022/07/18 10:37:47;;;;;;;4.70;1.75;;;;;;;27.93;33.01;102086.09;5272303;28;20074;-79
2022/07/18 10:40:29;;;;;;;10.10;1.65;;;;;;;28.18;33.30;102085.09;5271189;28;20028;-76
2022/07/18 10:43:31;;;;;;;6.82;1.73;;;;;;;28.07;33.43;102086.38;5273109;28;20019;-78
2022/07/18 10:46:04;;;;;;;12.73;2.08;;;;;;;28.50;32.06;102085.88;5288247;28;20042;-81
2022/07/18 10:48:35;;;;;;;6.63;1.33;;;;;;;29.00;31.54;102085.41;5291724;28;20024;-79
2022/07/18 10:51:12;;;;;;;7.63;1.88;;;;;;;28.90;31.15;102074.88;5293663;28;20089;-83
2022/07/18 10:53:52;;;;;;;4.72;1.40;;;;;;;28.99;31.14;102084.56;5289601;28;20056;-77
2022/07/18 10:56:36;;;;;;;8.38;1.80;;;;;;;29.10;31.05;102074.31;5283699;28;20056;-76
2022/07/18 10:59:20;;;;;;;5.18;1.50;;;;;;;29.42;31.03;102066.84;5290012;28;20024;-74
2022/07/18 11:01:53;;;;;;;9.25;2.95;;;;;;;29.42;30.88;102077.66;5292133;28;20494;-76
2022/07/18 11:04:32;;;;;;;11.00;2.33;;;;;;;29.78;30.99;102069.75;5292107;28;20410;-79
2022/07/18 11:07:13;;;;;;;6.18;1.90;;;;;;;29.82;30.40;102073.75;5283086;28;20450;-74
2022/07/18 11:09:47;;;;;;;6.53;1.55;;;;;;;29.90;30.14;102070.09;5261525;28;20051;-75
2022/07/18 11:12:31;;;;;;;9.95;2.00;;;;;;;29.95;30.63;102073.88;5287280;28;20064;-75
2022/07/18 11:15:13;;;;;;;5.25;1.80;;;;;;;30.24;29.75;102062.31;5282930;28;20043;-76
2022/07/18 11:17:56;;;;;;;5.70;1.67;;;;;;;30.51;30.26;102065.25;5261588;28;20698;-83
2022/07/18 11:20:33;;;;;;;10.40;2.55;;;;;;;30.97;29.96;102072.00;5269445;28;20494;-82
2022/07/18 11:23:13;;;;;;;5.43;2.35;;;;;;;30.74;30.22;102053.34;5287078;28;20495;-82
2022/07/18 11:25:46;;;;;;;12.63;2.75;;;;;;;31.31;29.32;102058.63;5273169;28;20059;-82
2022/07/18 11:28:21;;;;;;;15.57;2.35;;;;;;;31.18;26.95;102055.84;5268892;28;20049;-76
2022/07/18 11:31:03;;;;;;;7.97;1.88;;;;;;;31.24;26.74;102060.47;5272058;28;20060;-76
2022/07/18 11:33:37;;;;;;;14.10;2.08;;;;;;;31.65;25.08;102056.03;5283996;28;20753;-77
2022/07/18 11:36:11;;;;;;;12.30;2.30;;;;;;;31.63;26.34;102053.53;5277079;28;20027;-74
2022/07/18 11:38:56;;;;;;;5.53;2.03;;;;;;;31.71;27.37;102048.97;5272065;28;20370;-81
2022/07/18 11:41:28;;;;;;;9.05;2.10;;;;;;;31.50;26.44;102046.22;5281485;28;20493;-74
2022/07/18 11:43:59;;;;;;;7.57;1.80;;;;;;;31.93;26.08;102052.31;5281189;28;20028;-76
2022/07/18 11:46:30;;;;;;;13.30;5.78;;;;;;;31.53;25.94;102036.84;5282920;28;20081;-75
2022/07/18 11:49:04;;;;;;;5.00;1.92;;;;;;;31.78;26.25;102044.38;5278592;28;20039;-75